Time;durP1;ratioP1;P1;durP2;ratioP2;P2;SDS_P1;SDS_P2;PMS_P1;PMS_P2;Temp;Humidity;BMP_temperature;BMP_pressure;BME280_temperature;BME280_humidity;BME280_pressure;Samples;Min_cycle;Max_cycle;Signal;HPM_P1;HPM_P2
2023/03/20 00:02:02;;;;;;;;;;;;;;;1.61;66.52;101587.63;107672;1256;108950;-62
2023/03/20 00:04:31;;;;;;;;;;;;;;;1.59;66.70;101588.27;107636;1254;96470;-62
2023/03/20 00:06:59;;;;;;;;;;;;;;;1.55;66.45;101590.86;107710;1255;96469;-62
2023/03/20 00:09:28;;;;;;;;;;;;;;;1.55;66.62;101588.91;107660;1254;110502;-62
2023/03/20 00:11:56;;;;;;;;;;;;;;;1.55;66.35;101581.14;107649;1256;110246;-62
2023/03/20 00:14:25;;;;;;;;;;;;;;;1.54;66.40;101581.50;107641;1254;107959;-61
2023/03/20 00:16:53;;;;;;;;;;;;;;;1.52;66.57;101579.31;107646;1256;96456;-61
2023/03/20 00:19:23;;;;;;;;;;;;;;;1.49;66.59;101579.40;107701;1254;96937;-61
2023/03/20 00:21:52;;;;;;;;;;;;;;;1.47;66.37;101579.29;107650;1254;112022;-61
2023/03/20 00:24:21;;;;;;;;;;;;;;;1.46;66.58;101579.36;107660;1254;110524;-61
2023/03/20 00:26:50;;;;;;;;;;;;;;;1.45;66.93;101573.57;107657;1254;107678;-61
2023/03/20 00:29:21;;;;;;;;;;;;;;;1.43;66.79;101566.22;107651;1256;96465;-62
2023/03/20 00:31:49;;;;;;;;;;;;;;;1.42;67.01;101563.23;107674;1254;96353;-60
2023/03/20 00:34:19;;;;;;;;;;;;;;;1.41;66.98;101569.98;107681;1256;110383;-61
2023/03/20 00:36:48;;;;;;;;;;;;;;;1.41;67.33;101568.73;107608;1254;109324;-61
2023/03/20 00:39:16;;;;;;;;;;;;;;;1.40;67.58;101564.34;107670;1254;107603;-61
2023/03/20 00:41:47;;;;;;;;;;;;;;;1.40;67.31;101558.15;107658;1256;96460;-61
2023/03/20 00:44:25;;;;;;;;;;;;;;;1.40;67.03;101561.89;107626;1254;96462;-62
2023/03/20 00:46:58;;;;;;;;;;;;;;;1.40;67.24;101570.36;107628;1253;109757;-61
2023/03/20 00:49:29;;;;;;;;;;;;;;;1.40;67.36;101562.77;107664;1253;109103;-61
2023/03/20 00:51:57;;;;;;;;;;;;;;;1.39;67.37;101564.94;107689;1257;108224;-60
2023/03/20 00:54:26;;;;;;;;;;;;;;;1.35;67.43;101562.44;107452;1257;96470;-60
2023/03/20 00:56:59;;;;;;;;;;;;;;;1.31;67.48;101557.46;107608;1256;96362;-61
2023/03/20 00:59:32;;;;;;;;;;;;;;;1.25;67.56;101556.96;107582;1254;109604;-61
2023/03/20 01:02:01;;;;;;;;;;;;;;;1.20;67.87;101559.42;107658;1254;109608;-60
2023/03/20 01:04:35;;;;;;;;;;;;;;;1.19;67.92;101567.08;107612;1255;107640;-61
2023/03/20 01:07:03;;;;;;;;;;;;;;;1.17;67.88;101563.95;107609;1254;96514;-61
2023/03/20 01:09:32;;;;;;;;;;;;;;;1.17;67.98;101558.69;107683;1254;96460;-61
2023/03/20 01:12:01;;;;;;;;;;;;;;;1.18;68.08;101554.73;107686;1254;110854;-61
2023/03/20 01:14:29;;;;;;;;;;;;;;;1.19;67.87;101554.72;107682;1254;110134;-60
2023/03/20 01:16:57;;;;;;;;;;;;;;;1.19;67.87;101555.41;107589;1256;109197;-60
2023/03/20 01:19:26;;;;;;;;;;;;;;;1.19;67.57;101550.11;107645;1254;96507;-61
2023/03/20 01:21:55;;;;;;;;;;;;;;;1.18;67.23;101543.80;107683;1254;96593;-61
2023/03/20 01:24:23;;;;;;;;;;;;;;;1.14;67.42;101544.64;107583;1254;109958;-62
2023/03/20 01:26:52;;;;;;;;;;;;;;;1.13;67.44;101555.98;107666;1254;109777;-60
2023/03/20 01:29:22;;;;;;;;;;;;;;;1.12;67.72;101557.77;107583;1253;107729;-62
2023/03/20 01:31:51;;;;;;;;;;;;;;;1.12;68.12;101553.02;107578;1255;96363;-61
2023/03/20 01:34:20;;;;;;;;;;;;;;;1.15;68.16;101550.63;107592;1254;96570;-60
2023/03/20 01:36:52;;;;;;;;;;;;;;;1.18;68.31;101553.49;107545;1254;110969;-61
2023/03/20 01:39:23;;;;;;;;;;;;;;;1.22;68.57;101552.12;107604;1254;109468;-62
2023/03/20 01:41:53;;;;;;;;;;;;;;;1.26;68.61;101556.76;107689;1254;107766;-62
2023/03/20 01:44:23;;;;;;;;;;;;;;;1.31;68.66;101552.88;107655;1254;96471;-62
2023/03/20 01:46:56;;;;;;;;;;;;;;;1.36;68.75;101554.27;107658;1255;96547;-62
2023/03/20 01:49:25;;;;;;;;;;;;;;;1.38;68.80;101552.41;107549;1254;110253;-62
2023/03/20 01:51:55;;;;;;;;;;;;;;;1.39;68.66;101549.17;107590;1257;108700;-60
2023/03/20 01:54:42;;;;;;;;;;;;;;;1.43;68.49;101544.98;107597;1254;107232;-62
2023/03/20 01:57:21;;;;;;;;;;;;;;;1.45;68.53;101537.84;107573;1255;96456;-61
2023/03/20 01:59:51;;;;;;;;;;;;;;;1.48;68.52;101540.89;107572;1257;96469;-62
2023/03/20 02:02:25;;;;;;;;;;;;;;;1.50;68.47;101539.98;107697;1254;109688;-63
2023/03/20 02:04:57;;;;;;;;;;;;;;;1.50;68.54;101541.02;107678;1255;109115;-61
2023/03/20 02:07:25;;;;;;;;;;;;;;;1.48;68.33;101541.95;107541;1254;108559;-61
2023/03/20 02:10:07;;;;;;;;;;;;;;;1.50;68.30;101535.71;107524;1254;96471;-61
2023/03/20 02:13:03;;;;;;;;;;;;;;;1.49;68.20;101540.34;107560;1254;96360;-61
2023/03/20 02:15:52;;;;;;;;;;;;;;;1.50;68.27;101542.80;107650;1254;110631;-61
2023/03/20 02:18:36;;;;;;;;;;;;;;;1.51;68.38;101539.02;107587;1254;109516;-61
2023/03/20 02:21:20;;;;;;;;;;;;;;;1.52;68.35;101545.37;107539;1254;108691;-62
2023/03/20 02:24:02;;;;;;;;;;;;;;;1.54;68.40;101552.33;107583;1254;96474;-60
2023/03/20 02:26:34;;;;;;;;;;;;;;;1.56;68.37;101549.46;107678;1255;96498;-60
2023/03/20 02:29:23;;;;;;;;;;;;;;;1.57;68.37;101546.73;107686;1254;110303;-62
2023/03/20 02:32:11;;;;;;;;;;;;;;;1.59;68.15;101543.48;107638;1255;109069;-60
2023/03/20 02:34:54;;;;;;;;;;;;;;;1.60;68.22;101538.54;107621;1252;108873;-61
2023/03/20 02:37:42;;;;;;;;;;;;;;;1.58;68.20;101543.71;107561;1252;96546;-62
2023/03/20 02:40:15;;;;;;;;;;;;;;;1.55;68.28;101543.84;107677;1254;96449;-62
2023/03/20 02:42:55;;;;;;;;;;;;;;;1.52;67.83;101545.70;107712;1254;110535;-60
2023/03/20 02:45:35;;;;;;;;;;;;;;;1.48;67.85;101544.27;107697;1253;109086;-64
2023/03/20 02:48:24;;;;;;;;;;;;;;;1.40;67.86;101545.28;107691;1254;107961;-62
2023/03/20 02:51:02;;;;;;;;;;;;;;;1.29;67.78;101534.56;107554;1255;96703;-62
2023/03/20 02:53:42;;;;;;;;;;;;;;;1.18;67.90;101529.48;107682;1254;96466;-62
2023/03/20 02:56:13;;;;;;;;;;;;;;;1.09;68.00;101526.45;107667;1253;108667;-61
2023/03/20 02:58:45;;;;;;;;;;;;;;;1.06;68.27;101525.31;107558;1254;109161;-61
2023/03/20 03:01:15;;;;;;;;;;;;;;;1.01;68.20;101525.32;107731;1254;108049;-62
2023/03/20 03:03:47;;;;;;;;;;;;;;;0.99;68.22;101520.30;107550;1257;96766;-60
2023/03/20 03:06:23;;;;;;;;;;;;;;;0.96;68.40;101518.96;107544;1254;96460;-60
2023/03/20 03:09:01;;;;;;;;;;;;;;;0.94;68.45;101517.96;107675;1254;110612;-63
2023/03/20 03:11:31;;;;;;;;;;;;;;;0.93;68.37;101512.90;107678;1254;108920;-61
2023/03/20 03:14:00;;;;;;;;;;;;;;;0.88;68.52;101509.71;107615;1254;108364;-61
2023/03/20 03:16:32;;;;;;;;;;;;;;;0.80;68.88;101510.17;107575;1254;96494;-61
2023/03/20 03:19:05;;;;;;;;;;;;;;;0.74;68.90;101508.44;107495;1254;96482;-61
2023/03/20 03:21:37;;;;;;;;;;;;;;;0.72;69.26;101516.48;107534;1254;111373;-62
2023/03/20 03:24:15;;;;;;;;;;;;;;;0.71;69.03;101515.61;107459;1253;108742;-62
2023/03/20 03:26:49;;;;;;;;;;;;;;;0.69;69.42;101510.40;107545;1254;107669;-62
2023/03/20 03:29:18;;;;;;;;;;;;;;;0.63;70.14;101507.95;107523;1254;96547;-62
2023/03/20 03:31:47;;;;;;;;;;;;;;;0.62;70.04;101507.80;107597;1254;96416;-61
2023/03/20 03:34:17;;;;;;;;;;;;;;;0.62;69.90;101509.23;107559;1254;110588;-62
2023/03/20 03:36:45;;;;;;;;;;;;;;;0.61;69.88;101503.45;107745;1254;109726;-60
2023/03/20 03:39:23;;;;;;;;;;;;;;;0.61;69.78;101502.91;107700;1251;108429;-62
2023/03/20 03:41:54;;;;;;;;;;;;;;;0.60;70.02;101506.27;107539;1254;96565;-61
2023/03/20 03:44:49;;;;;;;;;;;;;;;0.60;70.12;101509.45;107750;1253;96350;-61
2023/03/20 03:47:30;;;;;;;;;;;;;;;0.59;70.28;101510.72;107410;1257;109498;-62
2023/03/20 03:50:01;;;;;;;;;;;;;;;0.59;69.87;101510.74;107722;1254;109186;-62
2023/03/20 03:52:33;;;;;;;;;;;;;;;0.60;69.85;101512.11;107719;1254;108300;-61
2023/03/20 03:55:05;;;;;;;;;;;;;;;0.61;69.99;101503.44;107661;1256;96578;-62
2023/03/20 03:57:40;;;;;;;;;;;;;;;0.61;70.01;101497.79;107759;1254;96351;-61
2023/03/20 04:00:14;;;;;;;;;;;;;;;0.61;69.99;101500.62;107703;1253;110205;-61
2023/03/20 04:02:45;;;;;;;;;;;;;;;0.63;70.02;101503.89;107536;1254;109292;-62
2023/03/20 04:05:15;;;;;;;;;;;;;;;0.66;70.26;101506.77;107670;1254;107950;-62
2023/03/20 04:07:44;;;;;;;;;;;;;;;0.71;70.38;101509.27;107733;1253;96465;-61
2023/03/20 04:10:13;;;;;;;;;;;;;;;0.78;70.55;101505.48;107710;1254;96552;-63
2023/03/20 04:12:43;;;;;;;;;;;;;;;0.84;70.26;101518.16;107544;1255;110387;-62
2023/03/20 04:15:13;;;;;;;;;;;;;;;0.89;70.44;101523.98;107546;1254;110112;-60
2023/03/20 04:17:42;;;;;;;;;;;;;;;0.95;70.46;101529.96;107735;1254;108408;-60
2023/03/20 04:20:12;;;;;;;;;;;;;;;1.03;70.50;101535.53;107638;1256;96455;-61
2023/03/20 04:22:41;;;;;;;;;;;;;;;1.09;70.72;101541.13;107565;1253;96550;-60
2023/03/20 04:25:23;;;;;;;;;;;;;;;1.15;70.61;101536.31;107547;1254;110250;-60
2023/03/20 04:27:54;;;;;;;;;;;;;;;1.22;70.49;101532.16;107749;1254;108695;-61
2023/03/20 04:30:31;;;;;;;;;;;;;;;1.29;70.54;101528.35;107692;1254;108892;-61
2023/03/20 04:33:28;;;;;;;;;;;;;;;1.37;70.67;101527.19;107715;1254;96549;-61
2023/03/20 04:36:19;;;;;;;;;;;;;;;1.45;71.02;101532.56;107329;1254;96648;-62
2023/03/20 04:38:49;;;;;;;;;;;;;;;1.51;70.95;101527.88;107735;1254;109261;-63
2023/03/20 04:41:19;;;;;;;;;;;;;;;1.59;71.21;101534.65;107535;1254;109298;-63
2023/03/20 04:43:52;;;;;;;;;;;;;;;1.67;71.39;101532.74;107581;1254;108719;-62
2023/03/20 04:46:22;;;;;;;;;;;;;;;1.74;71.43;101528.41;107521;1254;96545;-63
2023/03/20 04:48:51;;;;;;;;;;;;;;;1.82;71.49;101531.66;107734;1253;96951;-61
2023/03/20 04:51:38;;;;;;;;;;;;;;;1.89;71.56;101537.56;107612;1254;109806;-61
2023/03/20 04:54:51;;;;;;;;;;;;;;;1.99;71.69;101539.63;107563;1254;109506;-63
2023/03/20 04:57:24;;;;;;;;;;;;;;;2.08;71.64;101543.34;107521;1253;105962;-63
2023/03/20 04:59:53;;;;;;;;;;;;;;;2.17;71.72;101540.50;107716;1251;96463;-61
2023/03/20 05:02:28;;;;;;;;;;;;;;;2.26;71.77;101538.55;107715;1256;96353;-61
2023/03/20 05:05:36;;;;;;;;;;;;;;;2.35;72.03;101539.94;107681;1253;110260;-62
2023/03/20 05:08:19;;;;;;;;;;;;;;;2.46;72.49;101545.88;107510;1254;109396;-61
2023/03/20 05:10:49;;;;;;;;;;;;;;;2.53;72.45;101547.52;107694;1254;108368;-61
2023/03/20 05:13:36;;;;;;;;;;;;;;;2.61;72.56;101545.24;107653;1251;96460;-62
2023/03/20 05:16:28;;;;;;;;;;;;;;;2.68;72.86;101543.89;107433;1254;96531;-62
2023/03/20 05:19:18;;;;;;;;;;;;;;;2.76;73.00;101548.67;107616;1253;110895;-61
2023/03/20 05:22:13;;;;;;;;;;;;;;;2.88;73.47;101546.54;107339;1254;109905;-61
2023/03/20 05:24:41;;;;;;;;;;;;;;;2.95;73.85;101547.83;107594;1253;107950;-62
2023/03/20 05:27:28;;;;;;;;;;;;;;;2.98;74.65;101549.81;107654;1253;96379;-63
2023/03/20 05:30:22;;;;;;;;;;;;;;;3.04;74.72;101547.79;107424;1253;96529;-60
2023/03/20 05:33:09;;;;;;;;;;;;;;;3.10;75.05;101551.09;107697;1253;110282;-62
2023/03/20 05:35:58;;;;;;;;;;;;;;;3.14;75.03;101549.48;107230;1253;109250;-63
2023/03/20 05:39:02;;;;;;;;;;;;;;;3.20;74.71;101551.34;106939;1261;108292;-62
2023/03/20 05:41:43;;;;;;;;;;;;;;;3.28;75.01;101547.44;107573;1254;96561;-61
2023/03/20 05:44:31;;;;;;;;;;;;;;;3.36;75.17;101551.52;107710;1254;96336;-60
2023/03/20 05:47:26;;;;;;;;;;;;;;;3.47;75.16;101557.94;107344;1253;110531;-62
2023/03/20 05:49:54;;;;;;;;;;;;;;;3.54;75.15;101563.29;107615;1253;109644;-61
2023/03/20 05:52:49;;;;;;;;;;;;;;;3.60;75.14;101563.71;107690;1254;108739;-62
2023/03/20 05:55:44;;;;;;;;;;;;;;;3.67;75.03;101560.03;107318;1257;96526;-62
2023/03/20 05:58:31;;;;;;;;;;;;;;;3.72;74.74;101561.02;107572;1253;96546;-62
2023/03/20 06:01:22;;;;;;;;;;;;;;;3.76;75.07;101559.59;107450;1254;110918;-62
2023/03/20 06:04:10;;;;;;;;;;;;;;;3.80;74.76;101559.60;107492;1253;109482;-61
2023/03/20 06:06:48;;;;;;;;;;;;;;;3.84;75.18;101558.01;107640;1256;107933;-63
2023/03/20 06:09:17;;;;;;;;;;;;;;;3.86;74.74;101558.79;107682;1252;96954;-62
2023/03/20 06:11:45;;;;;;;;;;;;;;;3.88;74.88;101555.81;107750;1254;96420;-63
2023/03/20 06:14:15;;;;;;;;;;;;;;;3.94;74.68;101553.09;107705;1254;110631;-63
2023/03/20 06:16:47;;;;;;;;;;;;;;;3.99;74.64;101552.98;107703;1254;109094;-64
2023/03/20 06:19:16;;;;;;;;;;;;;;;4.04;74.75;101556.66;107695;1253;107629;-61
2023/03/20 06:21:45;;;;;;;;;;;;;;;4.10;74.53;101553.52;107537;1252;96613;-62
2023/03/20 06:24:15;;;;;;;;;;;;;;;4.12;74.83;101549.38;107636;1253;96461;-62
2023/03/20 06:26:43;;;;;;;;;;;;;;;4.11;74.90;101552.45;107504;1254;111949;-63
2023/03/20 06:29:13;;;;;;;;;;;;;;;4.13;74.61;101556.42;107506;1254;109877;-62
2023/03/20 06:31:42;;;;;;;;;;;;;;;4.17;74.56;101551.80;107567;1254;108959;-62
2023/03/20 06:34:13;;;;;;;;;;;;;;;4.24;74.57;101550.73;107510;1253;96489;-62
2023/03/20 06:36:47;;;;;;;;;;;;;;;4.32;74.73;101556.38;107717;1253;96577;-62
2023/03/20 06:39:19;;;;;;;;;;;;;;;4.38;74.54;101554.67;107718;1253;110655;-62
2023/03/20 06:41:48;;;;;;;;;;;;;;;4.43;74.50;101555.32;107720;1254;108025;-63
2023/03/20 06:44:29;;;;;;;;;;;;;;;4.49;74.61;101554.27;107668;1254;107784;-63
2023/03/20 06:47:33;;;;;;;;;;;;;;;4.57;74.57;101558.31;106938;1258;96492;-62
2023/03/20 06:50:30;;;;;;;;;;;;;;;4.73;74.34;101558.91;107142;1254;96479;-63
2023/03/20 06:53:27;;;;;;;;;;;;;;;4.99;74.38;101558.84;107714;1256;110227;-63
2023/03/20 06:56:18;;;;;;;;;;;;;;;5.09;74.20;101555.13;107576;1253;109684;-62
2023/03/20 06:58:46;;;;;;;;;;;;;;;5.12;73.86;101555.84;107661;1253;108187;-62
2023/03/20 07:01:16;;;;;;;;;;;;;;;5.20;73.74;101557.40;107615;1254;96459;-63
2023/03/20 07:03:45;;;;;;;;;;;;;;;5.25;73.51;101555.15;107557;1253;96536;-63
2023/03/20 07:06:17;;;;;;;;;;;;;;;5.33;73.15;101539.96;107521;1254;110700;-62
2023/03/20 07:08:45;;;;;;;;;;;;;;;5.42;73.00;101546.09;107531;1254;108745;-62
2023/03/20 07:11:14;;;;;;;;;;;;;;;5.51;72.81;101550.23;107443;1254;106722;-61
2023/03/20 07:13:42;;;;;;;;;;;;;;;5.62;72.69;101549.25;107490;1254;96477;-60
2023/03/20 07:16:19;;;;;;;;;;;;;;;5.77;72.44;101550.95;107673;1253;96440;-61
2023/03/20 07:18:48;;;;;;;;;;;;;;;5.93;72.43;101549.84;107590;1256;110260;-61
2023/03/20 07:21:19;;;;;;;;;;;;;;;6.11;72.06;101547.45;107278;1254;110156;-62
2023/03/20 07:23:47;;;;;;;;;;;;;;;6.23;71.78;101544.77;107612;1253;107573;-61
2023/03/20 07:26:16;;;;;;;;;;;;;;;6.34;70.98;101542.75;107466;1254;96427;-60
2023/03/20 07:28:44;;;;;;;;;;;;;;;6.38;70.87;101542.70;107531;1252;96939;-62
2023/03/20 07:31:19;;;;;;;;;;;;;;;6.44;70.60;101538.59;107602;1256;109835;-62
2023/03/20 07:33:49;;;;;;;;;;;;;;;6.48;70.21;101534.95;107535;1254;110169;-61
2023/03/20 07:36:17;;;;;;;;;;;;;;;6.53;70.00;101527.72;107630;1253;108727;-62
2023/03/20 07:38:46;;;;;;;;;;;;;;;6.55;69.73;101527.05;107613;1254;96552;-62
2023/03/20 07:41:14;;;;;;;;;;;;;;;6.52;69.29;101527.92;107618;1253;96549;-63
2023/03/20 07:43:46;;;;;;;;;;;;;;;6.53;69.21;101527.39;107606;1253;109852;-61
2023/03/20 07:46:17;;;;;;;;;;;;;;;6.61;69.26;101527.98;107609;1253;109611;-61
2023/03/20 07:48:46;;;;;;;;;;;;;;;6.66;68.75;101530.69;107628;1252;107742;-61
2023/03/20 07:51:14;;;;;;;;;;;;;;;6.71;69.16;101530.61;107632;1252;96765;-61
2023/03/20 07:53:43;;;;;;;;;;;;;;;6.83;69.02;101533.27;107538;1253;96340;-63
2023/03/20 07:56:11;;;;;;;;;;;;;;;6.93;68.84;101534.98;107707;1254;109911;-64
2023/03/20 07:58:39;;;;;;;;;;;;;;;7.03;68.52;101536.86;107712;1253;109580;-61
2023/03/20 08:01:08;;;;;;;;;;;;;;;7.10;68.04;101537.33;107708;1253;108427;-62
2023/03/20 08:03:37;;;;;;;;;;;;;;;7.10;67.98;101540.92;107650;1256;96536;-62
2023/03/20 08:06:08;;;;;;;;;;;;;;;7.14;68.01;101542.48;107742;1254;96481;-61
2023/03/20 08:08:37;;;;;;;;;;;;;;;7.19;67.82;101545.34;107664;1253;110427;-60
2023/03/20 08:11:06;;;;;;;;;;;;;;;7.23;67.66;101549.02;107671;1254;109685;-61
2023/03/20 08:13:34;;;;;;;;;;;;;;;7.34;67.49;101545.69;107682;1254;107865;-62
2023/03/20 08:16:03;;;;;;;;;;;;;;;7.49;67.50;101539.21;107705;1253;96493;-61
2023/03/20 08:18:31;;;;;;;;;;;;;;;7.67;67.14;101536.82;107691;1254;96491;-62
2023/03/20 08:20:59;;;;;;;;;;;;;;;7.85;66.93;101532.95;107724;1254;109844;-61
2023/03/20 08:23:27;;;;;;;;;;;;;;;7.99;66.34;101535.84;107688;1254;110027;-61
2023/03/20 08:25:56;;;;;;;;;;;;;;;8.14;66.36;101534.09;107684;1254;108073;-62
2023/03/20 08:28:24;;;;;;;;;;;;;;;8.28;65.42;101530.34;107659;1253;96480;-62
2023/03/20 08:31:12;;;;;;;;;;;;;;;8.32;65.20;101530.27;107706;1254;96593;-62
2023/03/20 08:33:40;;;;;;;;;;;;;;;8.43;64.71;101528.33;107630;1254;110537;-61
2023/03/20 08:36:09;;;;;;;;;;;;;;;8.63;64.99;101527.30;107692;1254;109161;-64
2023/03/20 08:38:37;;;;;;;;;;;;;;;8.85;64.23;101524.55;107583;1254;108603;-63
2023/03/20 08:41:06;;;;;;;;;;;;;;;8.98;63.68;101526.70;107664;1253;96490;-61
2023/03/20 08:43:35;;;;;;;;;;;;;;;9.06;63.67;101526.89;107645;1253;96379;-63
2023/03/20 08:46:04;;;;;;;;;;;;;;;9.12;63.56;101524.32;107711;1253;111255;-62
2023/03/20 08:48:34;;;;;;;;;;;;;;;9.18;63.36;101519.63;107670;1255;109082;-64
2023/03/20 08:51:02;;;;;;;;;;;;;;;9.24;63.19;101518.61;107688;1251;108453;-62
2023/03/20 08:53:30;;;;;;;;;;;;;;;9.27;62.97;101517.15;107623;1254;96351;-66
2023/03/20 08:55:59;;;;;;;;;;;;;;;9.31;62.62;101512.78;107540;1257;96505;-63
2023/03/20 08:58:27;;;;;;;;;;;;;;;9.38;62.14;101509.05;107715;1253;110375;-62
2023/03/20 09:00:56;;;;;;;;;;;;;;;9.49;60.95;101504.84;107672;1254;109851;-62
2023/03/20 09:03:24;;;;;;;;;;;;;;;9.60;61.05;101503.73;107654;1252;108743;-62
2023/03/20 09:05:53;;;;;;;;;;;;;;;9.78;60.54;101495.98;107628;1254;96469;-62
2023/03/20 09:08:21;;;;;;;;;;;;;;;10.00;59.98;101497.52;107666;1255;96475;-62
2023/03/20 09:10:50;;;;;;;;;;;;;;;10.22;58.73;101504.71;107678;1252;109877;-62
2023/03/20 09:13:21;;;;;;;;;;;;;;;10.40;59.19;101499.23;107716;1251;109884;-62
2023/03/20 09:15:55;;;;;;;;;;;;;;;10.55;57.74;101496.55;107677;1251;107614;-62
2023/03/20 09:18:24;;;;;;;;;;;;;;;10.72;57.00;101496.15;107616;1253;96488;-62
2023/03/20 09:20:53;;;;;;;;;;;;;;;10.83;56.89;101496.48;107641;1252;96364;-62
2023/03/20 09:23:21;;;;;;;;;;;;;;;10.91;57.34;101496.05;107695;1253;109848;-65
2023/03/20 09:25:49;;;;;;;;;;;;;;;11.15;56.90;101493.53;107696;1251;109793;-64
2023/03/20 09:28:18;;;;;;;;;;;;;;;11.35;56.66;101491.90;107641;1254;108281;-62
2023/03/20 09:30:47;;;;;;;;;;;;;;;11.60;56.40;101492.21;107542;1252;96481;-63
2023/03/20 09:33:17;;;;;;;;;;;;;;;11.88;54.06;101492.61;107665;1251;96578;-63
2023/03/20 09:35:45;;;;;;;;;;;;;;;12.19;52.86;101492.65;107504;1254;110070;-61
2023/03/20 09:38:14;;;;;;;;;;;;;;;12.73;53.40;101483.93;107650;1255;109653;-61
2023/03/20 09:40:55;;;;;;;;;;;;;;;13.32;53.11;101480.60;107686;1252;108227;-63
2023/03/20 09:43:43;;;;;;;;;;;;;;;14.17;51.93;101480.56;107462;1254;96459;-62
2023/03/20 09:46:11;;;;;;;;;;;;;;;14.69;47.63;101480.77;107639;1253;96873;-63
2023/03/20 09:48:45;;;;;;;;;;;;;;;14.89;47.99;101478.55;107589;1253;109896;-63
2023/03/20 09:51:32;;;;;;;;;;;;;;;15.37;47.73;101476.61;107636;1253;109380;-63
2023/03/20 09:54:04;;;;;;;;;;;;;;;15.67;46.74;101471.36;107662;1252;108019;-62
2023/03/20 09:56:33;;;;;;;;;;;;;;;15.62;45.59;101470.40;107637;1254;96581;-63
2023/03/20 09:59:03;;;;;;;;;;;;;;;15.80;44.48;101458.64;107665;1253;96574;-62
2023/03/20 10:01:57;;;;;;;;;;;;;;;16.23;44.47;101453.08;107666;1255;110192;-62
2023/03/20 10:04:27;;;;;;;;;;;;;;;17.05;43.04;101445.38;106818;1251;1098874;-63
2023/03/20 10:06:56;;;;;;;;;;;;;;;17.33;40.62;101442.45;107603;1253;108642;-62
2023/03/20 10:09:26;;;;;;;;;;;;;;;17.52;41.66;101441.87;107534;1253;96541;-63
2023/03/20 10:12:09;;;;;;;;;;;;;;;17.92;42.01;101430.48;107627;1254;96361;-61
2023/03/20 10:14:43;;;;;;;;;;;;;;;18.47;40.83;101429.00;107638;1254;110657;-64
2023/03/20 10:17:31;;;;;;;;;;;;;;;18.89;39.71;101420.80;107648;1253;109014;-62
2023/03/20 10:20:09;;;;;;;;;;;;;;;19.41;39.12;101419.66;107622;1253;108537;-61
2023/03/20 10:22:40;;;;;;;;;;;;;;;19.76;39.16;101413.40;107611;1252;96469;-64
2023/03/20 10:25:41;;;;;;;;;;;;;;;20.25;37.21;101412.36;107656;1253;96503;-64
2023/03/20 10:28:15;;;;;;;;;;;;;;;20.71;35.36;101401.78;107283;1253;110309;-64
2023/03/20 10:30:49;;;;;;;;;;;;;;;21.04;36.38;101395.19;107618;1253;109178;-64
2023/03/20 10:33:26;;;;;;;;;;;;;;;21.54;35.12;101395.05;107628;1254;108673;-62
2023/03/20 10:36:12;;;;;;;;;;;;;;;21.85;33.70;101395.84;107710;1253;96561;-62
2023/03/20 10:38:49;;;;;;;;;;;;;;;22.10;33.67;101391.80;107628;1253;96379;-62
2023/03/20 10:41:20;;;;;;;;;;;;;;;22.14;33.70;101383.83;107642;1255;110283;-62
2023/03/20 10:43:50;;;;;;;;;;;;;;;21.90;34.51;101384.53;107651;1252;109184;-62
2023/03/20 10:46:34;;;;;;;;;;;;;;;21.64;34.63;101383.36;107621;1255;108590;-62
2023/03/20 10:49:12;;;;;;;;;;;;;;;21.35;32.80;101377.09;107633;1253;96364;-63
2023/03/20 10:52:00;;;;;;;;;;;;;;;20.85;33.75;101370.63;107650;1254;96469;-63
2023/03/20 10:54:31;;;;;;;;;;;;;;;20.78;33.18;101367.96;107687;1253;110714;-63
2023/03/20 10:57:02;;;;;;;;;;;;;;;20.62;33.81;101367.67;107654;1253;110017;-63
2023/03/20 10:59:39;;;;;;;;;;;;;;;20.73;33.76;101359.05;107608;1254;107468;-64
2023/03/20 11:02:12;;;;;;;;;;;;;;;21.06;33.47;101352.34;107651;1252;96347;-62
2023/03/20 11:04:40;;;;;;;;;;;;;;;21.48;33.54;101349.66;107702;1253;96456;-62
2023/03/20 11:07:24;;;;;;;;;;;;;;;21.92;33.23;101351.36;107684;1252;109397;-66
2023/03/20 11:10:05;;;;;;;;;;;;;;;22.50;30.64;101346.92;107644;1252;109445;-65
2023/03/20 11:12:35;;;;;;;;;;;;;;;22.61;30.81;101340.86;107664;1254;108776;-63
2023/03/20 11:15:14;;;;;;;;;;;;;;;22.94;31.35;101341.65;107614;1253;96501;-62
2023/03/20 11:17:42;;;;;;;;;;;;;;;23.32;31.75;101336.02;107679;1255;96565;-63
2023/03/20 11:20:13;;;;;;;;;;;;;;;23.66;29.29;101327.81;107694;1254;110532;-62
2023/03/20 11:22:41;;;;;;;;;;;;;;;23.18;29.60;101333.36;107642;1255;109838;-62
2023/03/20 11:25:21;;;;;;;;;;;;;;;23.12;30.52;101333.71;107608;1252;107865;-64
2023/03/20 11:27:49;;;;;;;;;;;;;;;23.18;30.02;101329.21;107626;1254;96458;-63
2023/03/20 11:30:18;;;;;;;;;;;;;;;23.05;30.17;101330.81;107650;1253;96596;-62
2023/03/20 11:32:48;;;;;;;;;;;;;;;23.08;29.95;101330.27;107669;1253;112058;-64
2023/03/20 11:35:25;;;;;;;;;;;;;;;22.89;28.68;101322.65;107660;1253;109980;-63
2023/03/20 11:37:54;;;;;;;;;;;;;;;22.28;29.33;101320.27;107677;1253;107795;-63
2023/03/20 11:40:24;;;;;;;;;;;;;;;21.55;29.93;101317.38;107652;1254;96468;-62
2023/03/20 11:42:55;;;;;;;;;;;;;;;21.04;31.34;101322.85;107694;1253;96360;-62
2023/03/20 11:45:24;;;;;;;;;;;;;;;20.78;32.07;101328.17;107710;1253;110495;-64
2023/03/20 11:47:54;;;;;;;;;;;;;;;20.32;31.92;101327.39;107683;1252;109031;-64
2023/03/20 11:50:31;;;;;;;;;;;;;;;19.88;32.50;101329.37;107657;1253;108616;-63
2023/03/20 11:53:01;;;;;;;;;;;;;;;19.58;32.26;101331.98;107705;1253;96487;-62
2023/03/20 11:55:31;;;;;;;;;;;;;;;19.08;32.93;101330.77;107659;1254;96440;-63
2023/03/20 11:58:14;;;;;;;;;;;;;;;18.77;33.43;101330.31;107694;1255;110786;-64
2023/03/20 12:00:48;;;;;;;;;;;;;;;18.59;33.82;101331.78;107615;1253;109679;-63
2023/03/20 12:03:35;;;;;;;;;;;;;;;18.37;34.12;101333.05;107643;1254;108220;-61
2023/03/20 12:06:12;;;;;;;;;;;;;;;18.05;34.72;101335.10;107664;1254;96566;-64
2023/03/20 12:08:41;;;;;;;;;;;;;;;17.99;34.84;101335.41;107715;1254;96463;-62
2023/03/20 12:11:20;;;;;;;;;;;;;;;18.11;34.91;101331.66;107666;1254;110909;-62
2023/03/20 12:13:50;;;;;;;;;;;;;;;18.22;35.20;101326.64;107641;1253;108701;-62
2023/03/20 12:16:23;;;;;;;;;;;;;;;18.25;35.31;101321.46;107646;1254;107483;-62
2023/03/20 12:19:00;;;;;;;;;;;;;;;18.56;35.10;101316.66;107702;1253;96497;-62
2023/03/20 12:21:38;;;;;;;;;;;;;;;19.01;35.19;101314.21;107654;1254;96456;-64
2023/03/20 12:24:06;;;;;;;;;;;;;;;19.41;34.40;101314.36;107614;1252;110247;-63
2023/03/20 12:26:43;;;;;;;;;;;;;;;19.45;33.87;101306.64;107647;1254;110015;-63
2023/03/20 12:29:21;;;;;;;;;;;;;;;19.61;34.14;101299.03;107637;1253;109055;-63
2023/03/20 12:31:52;;;;;;;;;;;;;;;20.03;34.03;101286.48;107630;1252;97021;-63
2023/03/20 12:34:38;;;;;;;;;;;;;;;20.71;33.25;101282.77;107697;1254;96370;-63
2023/03/20 12:37:13;;;;;;;;;;;;;;;21.35;32.60;101274.54;107682;1253;110779;-62
2023/03/20 12:39:52;;;;;;;;;;;;;;;21.94;31.56;101271.17;107675;1254;109742;-62
2023/03/20 12:42:40;;;;;;;;;;;;;;;22.38;30.86;101267.46;107645;1253;107637;-63
2023/03/20 12:45:08;;;;;;;;;;;;;;;22.81;30.03;101258.85;107620;1254;96455;-62
2023/03/20 12:47:40;;;;;;;;;;;;;;;23.17;28.81;101261.78;107678;1253;96412;-63
2023/03/20 12:50:18;;;;;;;;;;;;;;;23.50;28.73;101258.63;107676;1254;109150;-63
2023/03/20 12:53:05;;;;;;;;;;;;;;;23.96;29.28;101254.82;107659;1254;109650;-63
2023/03/20 12:55:52;;;;;;;;;;;;;;;24.36;27.50;101253.90;107636;1254;108464;-63
2023/03/20 12:58:39;;;;;;;;;;;;;;;24.61;27.96;101244.15;107687;1252;96477;-64
2023/03/20 13:01:14;;;;;;;;;;;;;;;25.08;26.30;101240.75;107683;1253;96472;-63
2023/03/20 13:03:43;;;;;;;;;;;;;;;25.44;26.27;101237.13;107621;1254;110567;-62
2023/03/20 13:06:19;;;;;;;;;;;;;;;25.97;26.86;101231.86;107683;1252;110497;-62